Time;durP1;ratioP1;P1;durP2;ratioP2;P2;SDS_P1;SDS_P2;PMS_P1;PMS_P2;Temp;Humidity;BMP_temperature;BMP_pressure;BME280_temperature;BME280_humidity;BME280_pressure;Samples;Min_cycle;Max_cycle;Signal;HPM_P1;HPM_P2
2021/04/02 00:02:24;;;;;;;9.57;5.43;;;5.30;77.60;;;;;;5053469;28;20033;-63
2021/04/02 00:04:50;;;;;;;11.03;6.20;;;5.30;77.80;;;;;;5036228;28;20070;-63
2021/04/02 00:07:16;;;;;;;11.37;5.93;;;5.20;77.90;;;;;;5019511;28;20045;-63
2021/04/02 00:09:41;;;;;;;10.47;6.27;;;5.20;78.00;;;;;;5053661;28;20041;-63
2021/04/02 00:12:08;;;;;;;10.27;5.73;;;5.10;78.20;;;;;;5038099;28;20041;-64
2021/04/02 00:14:33;;;;;;;11.40;6.33;;;5.10;78.30;;;;;;5056572;28;20061;-63
2021/04/02 00:16:59;;;;;;;10.70;6.30;;;5.00;78.40;;;;;;5018495;28;20067;-63
2021/04/02 00:19:25;;;;;;;12.03;6.23;;;5.00;79.20;;;;;;5053727;28;20049;-67
2021/04/02 00:21:50;;;;;;;12.17;6.67;;;5.00;78.90;;;;;;5037602;28;20048;-63
2021/04/02 00:24:16;;;;;;;12.23;6.80;;;5.00;78.90;;;;;;5031360;28;20125;-63
2021/04/02 00:26:43;;;;;;;10.77;6.20;;;4.90;78.90;;;;;;5052801;28;20048;-64
2021/04/02 00:29:09;;;;;;;11.30;6.47;;;4.90;79.10;;;;;;5038068;28;20515;-63
2021/04/02 00:31:35;;;;;;;12.63;7.27;;;4.90;79.30;;;;;;5053192;28;20132;-64
2021/04/02 00:34:02;;;;;;;13.43;7.43;;;4.80;79.40;;;;;;5053151;28;20061;-66
2021/04/02 00:36:28;;;;;;;14.40;7.97;;;4.80;79.60;;;;;;5053383;28;20120;-63
2021/04/02 00:38:54;;;;;;;13.27;7.43;;;4.80;79.80;;;;;;5053402;28;20167;-67
2021/04/02 00:41:20;;;;;;;14.27;7.60;;;4.80;80.10;;;;;;5055141;28;20037;-65
2021/04/02 00:43:47;;;;;;;13.27;7.97;;;4.80;80.80;;;;;;5052657;28;20505;-63
2021/04/02 00:46:15;;;;;;;13.60;7.53;;;4.90;81.40;;;;;;5053887;28;20043;-63
2021/04/02 00:48:42;;;;;;;22.67;12.13;;;5.00;81.90;;;;;;5052732;28;20048;-63
2021/04/02 00:51:18;;;;;;;26.50;12.00;;;5.10;82.30;;;;;;5033787;28;20040;-64
2021/04/02 00:53:45;;;;;;;25.80;12.97;;;5.30;82.40;;;;;;5036442;28;20501;-63
2021/04/02 00:56:14;;;;;;;25.57;13.07;;;5.40;82.70;;;;;;5034177;28;20059;-63
2021/04/02 00:58:41;;;;;;;26.40;12.60;;;5.50;82.90;;;;;;5052516;28;20703;-64
2021/04/02 01:01:09;;;;;;;45.70;13.90;;;5.60;83.10;;;;;;5033695;28;20041;-64
2021/04/02 01:03:35;;;;;;;43.70;13.30;;;5.60;82.90;;;;;;5034485;28;20041;-63
2021/04/02 01:06:09;;;;;;;74.90;15.90;;;5.70;83.00;;;;;;5052310;28;20516;-64
2021/04/02 01:08:36;;;;;;;49.87;15.07;;;5.80;82.90;;;;;;5033533;28;20091;-64
2021/04/02 01:11:09;;;;;;;53.57;16.07;;;5.80;83.10;;;;;;5033686;28;20131;-64
2021/04/02 01:13:36;;;;;;;26.77;14.25;;;5.90;83.20;;;;;;5033955;28;20037;-64
2021/04/02 01:16:11;;;;;;;35.10;16.00;;;5.90;83.40;;;;;;5017745;28;20045;-64
2021/04/02 01:19:11;;;;;;;37.23;15.53;;;6.00;83.50;;;;;;5046314;28;20489;-64
2021/04/02 01:21:42;;;;;;;29.38;16.02;;;6.00;83.50;;;;;;5029358;28;20044;-65
2021/04/02 01:24:24;;;;;;;72.97;16.90;;;6.10;83.40;;;;;;5034945;28;20043;-63
2021/04/02 01:27:27;;;;;;;80.77;16.67;;;6.10;83.50;;;;;;5036455;28;20702;-63
2021/04/02 01:29:56;;;;;;;100.07;16.83;;;6.20;83.50;;;;;;5033969;28;20405;-63
2021/04/02 01:32:52;;;;;;;54.80;16.47;;;6.10;83.40;;;;;;5033636;28;20056;-65
2021/04/02 01:35:31;;;;;;;126.10;17.47;;;6.10;83.60;;;;;;5012481;28;20037;-65
2021/04/02 01:38:21;;;;;;;162.43;18.10;;;6.10;83.50;;;;;;5028113;28;20029;-65
2021/04/02 01:40:53;;;;;;;75.90;16.45;;;6.10;83.50;;;;;;5033267;28;20450;-65
2021/04/02 01:43:41;;;;;;;114.68;16.95;;;6.10;83.70;;;;;;5034068;28;20036;-65
2021/04/02 01:46:08;;;;;;;65.27;17.77;;;6.00;83.70;;;;;;5035348;28;20033;-74
2021/04/02 01:48:39;;;;;;;95.63;17.23;;;6.00;84.10;;;;;;5021148;28;20037;-77
2021/04/02 01:51:05;;;;;;;101.47;16.90;;;6.00;84.00;;;;;;5037430;28;20068;-65
2021/04/02 01:53:35;;;;;;;38.30;16.10;;;6.00;84.20;;;;;;5055639;28;20037;-66
2021/04/02 01:56:03;;;;;;;38.10;15.70;;;6.00;84.50;;;;;;5037034;28;20029;-66
2021/04/02 01:58:40;;;;;;;77.67;16.57;;;6.00;84.70;;;;;;5055397;28;20503;-64
2021/04/02 02:01:08;;;;;;;97.27;16.73;;;6.10;84.70;;;;;;5037122;28;20381;-64
2021/04/02 02:03:40;;;;;;;57.92;16.60;;;6.00;84.10;;;;;;5055582;28;20040;-67
2021/04/02 02:06:12;;;;;;;37.03;15.67;;;6.00;85.00;;;;;;5018395;28;20033;-63
2021/04/02 02:08:49;;;;;;;54.43;15.43;;;6.00;84.90;;;;;;5033798;28;20043;-63
2021/04/02 02:11:21;;;;;;;57.97;15.00;;;6.00;85.10;;;;;;5032792;28;20033;-63
2021/04/02 02:13:55;;;;;;;46.45;16.23;;;6.00;85.10;;;;;;5018107;28;20527;-63
2021/04/02 02:16:28;;;;;;;51.03;15.30;;;6.00;85.10;;;;;;5033328;28;20044;-63
2021/04/02 02:18:58;;;;;;;36.30;16.17;;;6.00;85.00;;;;;;5033552;28;20447;-63
2021/04/02 02:21:27;;;;;;;29.17;14.20;;;6.00;85.30;;;;;;5027039;28;20069;-63
2021/04/02 02:23:56;;;;;;;39.93;15.03;;;6.00;85.30;;;;;;5033112;28;20459;-63
2021/04/02 02:26:23;;;;;;;63.23;14.73;;;6.00;85.20;;;;;;5033141;28;20390;-64
2021/04/02 02:28:52;;;;;;;36.03;13.37;;;6.00;85.10;;;;;;5025431;28;20063;-68
2021/04/02 02:31:19;;;;;;;33.20;12.97;;;6.00;84.90;;;;;;5040784;28;20037;-63
2021/04/02 02:33:46;;;;;;;27.30;14.40;;;6.00;85.20;;;;;;5032772;28;20059;-63
2021/04/02 02:36:22;;;;;;;49.90;14.00;;;5.90;85.30;;;;;;5032706;28;20041;-63
2021/04/02 02:38:48;;;;;;;83.50;13.43;;;5.90;85.30;;;;;;5032315;28;20045;-63
2021/04/02 02:41:16;;;;;;;38.63;12.47;;;5.90;84.80;;;;;;5034825;28;20032;-63
2021/04/02 02:43:42;;;;;;;21.23;11.27;;;5.70;85.10;;;;;;5050971;28;20041;-64
2021/04/02 02:46:08;;;;;;;23.87;12.57;;;5.60;85.60;;;;;;5065027;22;20046;-76
2021/04/02 02:48:33;;;;;;;21.27;11.63;;;5.70;86.10;;;;;;5099250;28;20028;-75
2021/04/02 02:51:02;;;;;;;25.00;12.63;;;5.70;86.30;;;;;;5094787;28;20453;-75
2021/04/02 02:53:30;;;;;;;23.93;12.50;;;5.70;86.10;;;;;;5092754;28;20118;-76
2021/04/02 02:56:01;;;;;;;22.87;11.27;;;5.80;86.00;;;;;;5089193;28;20032;-75
2021/04/02 02:58:35;;;;;;;41.70;11.17;;;5.80;85.70;;;;;;5082804;28;20036;-74
2021/04/02 03:01:01;;;;;;;31.33;10.27;;;5.70;84.50;;;;;;5076001;28;20032;-75
2021/04/02 03:03:28;;;;;;;67.90;12.07;;;5.50;85.10;;;;;;5060753;28;20051;-75
2021/04/02 03:06:01;;;;;;;22.57;10.80;;;5.40;84.80;;;;;;5077541;28;20035;-75
2021/04/02 03:08:42;;;;;;;21.83;10.57;;;5.30;85.80;;;;;;5099035;28;20028;-76
2021/04/02 03:11:10;;;;;;;117.90;11.80;;;5.30;86.30;;;;;;5096670;28;20034;-74
2021/04/02 03:13:40;;;;;;;22.10;9.47;;;5.30;86.50;;;;;;5096113;28;20506;-75
2021/04/02 03:16:09;;;;;;;25.10;10.50;;;5.30;86.60;;;;;;5113720;28;20038;-74
2021/04/02 03:18:37;;;;;;;25.87;10.87;;;5.40;86.80;;;;;;5096020;28;20522;-74
2021/04/02 03:21:07;;;;;;;25.05;10.77;;;5.40;86.80;;;;;;5079869;28;20035;-75
2021/04/02 03:23:35;;;;;;;20.47;10.07;;;5.40;86.70;;;;;;5065291;28;20047;-75
2021/04/02 03:26:02;;;;;;;31.87;10.27;;;5.50;86.60;;;;;;5097753;28;20043;-74
2021/04/02 03:28:28;;;;;;;25.50;10.23;;;5.50;86.60;;;;;;5083951;28;20067;-74
2021/04/02 03:30:57;;;;;;;28.30;9.20;;;5.50;86.30;;;;;;5091860;28;20487;-74
2021/04/02 03:33:34;;;;;;;37.83;10.00;;;5.50;86.40;;;;;;5083073;28;20487;-75
2021/04/02 03:36:14;;;;;;;18.60;8.27;;;5.50;86.40;;;;;;5112974;28;20084;-75
2021/04/02 03:38:47;;;;;;;16.90;9.17;;;5.50;86.40;;;;;;5103341;28;20054;-74
2021/04/02 03:41:26;;;;;;;20.27;8.97;;;5.50;86.40;;;;;;5080237;28;20115;-76
2021/04/02 03:43:54;;;;;;;19.80;8.47;;;5.50;86.20;;;;;;5114320;28;20040;-74
2021/04/02 03:46:21;;;;;;;15.47;8.40;;;5.50;86.20;;;;;;5087222;28;20040;-75
2021/04/02 03:48:54;;;;;;;19.03;8.80;;;5.50;86.30;;;;;;5078307;28;20027;-73
2021/04/02 03:51:24;;;;;;;30.05;9.55;;;5.50;86.40;;;;;;5112193;28;20441;-72
2021/04/02 03:53:56;;;;;;;31.37;9.50;;;5.40;86.50;;;;;;5114095;28;20043;-73
2021/04/02 03:56:30;;;;;;;23.93;9.70;;;5.40;86.50;;;;;;5078765;28;20043;-71
2021/04/02 03:58:58;;;;;;;25.00;9.97;;;5.40;86.50;;;;;;5112907;28;20062;-72
2021/04/02 04:01:29;;;;;;;;;;;5.40;86.00;;;;;;5095998;28;20036;-73
2021/04/02 04:04:00;;;;;;;42.83;10.07;;;5.40;86.50;;;;;;5094986;28;20006;-73
2021/04/02 04:06:30;;;;;;;16.23;9.73;;;5.40;86.60;;;;;;5078860;28;20039;-73
2021/04/02 04:09:02;;;;;;;29.30;10.53;;;5.40;86.70;;;;;;5095143;28;20499;-73
2021/04/02 04:11:31;;;;;;;25.13;10.53;;;5.40;86.90;;;;;;5112636;28;20064;-73
2021/04/02 04:14:01;;;;;;;19.70;10.93;;;5.40;86.50;;;;;;5078499;28;20043;-73
2021/04/02 04:16:30;;;;;;;21.07;11.30;;;5.30;86.80;;;;;;5095370;28;20036;-73
2021/04/02 04:19:00;;;;;;;20.53;12.40;;;5.40;86.80;;;;;;5100280;28;20028;-73
2021/04/02 04:21:40;;;;;;;21.57;12.37;;;5.30;86.50;;;;;;5062737;28;20416;-73
2021/04/02 04:24:14;;;;;;;24.33;12.27;;;5.30;86.90;;;;;;5059565;28;20040;-73
2021/04/02 04:26:46;;;;;;;19.30;12.60;;;5.30;86.80;;;;;;5084565;28;20032;-72
2021/04/02 04:29:21;;;;;;;19.60;12.93;;;5.30;86.80;;;;;;5104286;28;20052;-72
2021/04/02 04:31:48;;;;;;;20.83;13.40;;;5.30;86.90;;;;;;5111271;28;20027;-73
2021/04/02 04:34:15;;;;;;;19.13;12.33;;;5.30;86.60;;;;;;5100488;28;20048;-71
2021/04/02 04:36:43;;;;;;;20.20;12.80;;;5.20;86.20;;;;;;5091640;28;20032;-73
2021/04/02 04:39:09;;;;;;;18.13;12.20;;;5.20;86.40;;;;;;5101189;28;20055;-73
2021/04/02 04:41:35;;;;;;;18.70;12.23;;;5.10;86.70;;;;;;5109275;28;20419;-72
2021/04/02 04:44:05;;;;;;;17.73;11.30;;;5.10;86.70;;;;;;5105649;28;20046;-74
2021/04/02 04:46:32;;;;;;;19.07;11.93;;;5.10;86.70;;;;;;5090242;28;20050;-73
2021/04/02 04:48:58;;;;;;;18.87;11.67;;;5.10;86.40;;;;;;5094812;28;20046;-73
2021/04/02 04:51:28;;;;;;;18.23;11.53;;;5.00;86.40;;;;;;5094606;28;20039;-73
2021/04/02 04:53:56;;;;;;;18.60;11.70;;;5.00;86.50;;;;;;5087079;28;20053;-72
2021/04/02 04:56:26;;;;;;;18.33;11.50;;;5.00;86.50;;;;;;5072564;28;20052;-72
2021/04/02 04:58:55;;;;;;;18.98;11.55;;;4.90;85.90;;;;;;5112451;28;20039;-73
2021/04/02 05:01:23;;;;;;;17.23;11.53;;;4.90;86.50;;;;;;5112514;28;20032;-72
2021/04/02 05:03:50;;;;;;;19.50;12.00;;;4.80;86.60;;;;;;5111912;28;20082;-73
2021/04/02 05:06:18;;;;;;;19.47;10.87;;;4.80;86.70;;;;;;5094617;28;20032;-73
2021/04/02 05:08:46;;;;;;;19.07;10.80;;;4.80;86.80;;;;;;5112394;28;20039;-71
2021/04/02 05:11:14;;;;;;;18.70;9.63;;;4.80;86.70;;;;;;5112290;28;20040;-72
2021/04/02 05:13:41;;;;;;;17.43;9.73;;;4.80;86.40;;;;;;5094401;28;20038;-72
2021/04/02 05:16:07;;;;;;;16.40;9.33;;;4.80;86.50;;;;;;5102302;28;20044;-72
2021/04/02 05:18:34;;;;;;;19.33;9.77;;;4.80;86.60;;;;;;5097426;28;20039;-72
2021/04/02 05:21:00;;;;;;;17.93;9.20;;;4.80;86.70;;;;;;5093174;28;20403;-72
2021/04/02 05:23:26;;;;;;;15.93;9.00;;;4.80;86.80;;;;;;5084608;28;20051;-72
2021/04/02 05:25:51;;;;;;;21.13;10.03;;;4.80;86.60;;;;;;5104437;28;20036;-73
2021/04/02 05:28:18;;;;;;;15.77;8.87;;;4.80;86.80;;;;;;5099579;28;20336;-73
2021/04/02 05:30:44;;;;;;;14.13;8.60;;;4.80;86.90;;;;;;5093383;28;20036;-67
2021/04/02 05:33:10;;;;;;;18.80;8.70;;;4.90;86.60;;;;;;5095003;28;20400;-65
2021/04/02 05:35:36;;;;;;;18.57;8.57;;;4.80;85.90;;;;;;5097652;28;20036;-67
2021/04/02 05:38:02;;;;;;;19.33;9.07;;;4.80;86.10;;;;;;5088989;28;20034;-66
2021/04/02 05:40:29;;;;;;;15.83;8.70;;;4.70;86.50;;;;;;5100128;28;20089;-67
2021/04/02 05:43:20;;;;;;;18.40;9.20;;;4.80;86.90;;;;;;5094763;28;20046;-67
2021/04/02 05:45:47;;;;;;;19.23;10.07;;;4.80;86.90;;;;;;5081225;28;20056;-66
2021/04/02 05:48:16;;;;;;;18.50;9.40;;;4.90;86.60;;;;;;5083370;28;20100;-66
2021/04/02 05:50:42;;;;;;;22.20;9.33;;;4.90;86.60;;;;;;5081366;28;20028;-67
2021/04/02 05:53:13;;;;;;;21.10;10.37;;;4.90;86.40;;;;;;5098978;28;20051;-66
2021/04/02 05:55:43;;;;;;;16.25;9.07;;;4.90;86.70;;;;;;5101030;28;20078;-66
2021/04/02 05:58:11;;;;;;;18.23;8.95;;;4.90;86.80;;;;;;5104138;28;20127;-67
2021/04/02 06:00:38;;;;;;;18.20;9.20;;;5.00;86.90;;;;;;5085302;28;20127;-71
2021/04/02 06:03:06;;;;;;;20.00;8.37;;;5.10;86.60;;;;;;5080896;28;20123;-69
2021/04/02 06:05:32;;;;;;;15.20;7.47;;;5.10;86.70;;;;;;5102699;28;20082;-70
2021/04/02 06:07:57;;;;;;;18.23;7.47;;;5.20;86.60;;;;;;5095443;28;20553;-66
2021/04/02 06:10:24;;;;;;;16.37;6.73;;;5.30;86.70;;;;;;5094448;28;20052;-66
2021/04/02 06:12:50;;;;;;;13.07;6.60;;;5.40;87.20;;;;;;5087616;28;20476;-66
2021/04/02 06:15:18;;;;;;;16.90;6.37;;;5.60;87.30;;;;;;5086931;28;20036;-68
2021/04/02 06:18:06;;;;;;;16.43;6.20;;;5.80;87.00;;;;;;5090811;28;20177;-66
2021/04/02 06:20:41;;;;;;;17.50;6.50;;;5.90;87.00;;;;;;5099042;28;20056;-74
2021/04/02 06:23:13;;;;;;;14.07;5.30;;;6.10;86.90;;;;;;5073691;28;20054;-75
2021/04/02 06:25:45;;;;;;;16.40;5.47;;;6.30;86.90;;;;;;5089500;28;20075;-76
2021/04/02 06:28:15;;;;;;;14.90;5.37;;;6.40;86.00;;;;;;5085740;28;20043;-75
2021/04/02 06:30:42;;;;;;;15.77;5.30;;;6.60;86.30;;;;;;5072897;28;20029;-75
2021/04/02 06:33:11;;;;;;;15.00;5.00;;;6.80;86.20;;;;;;5099970;28;20495;-76
2021/04/02 06:35:41;;;;;;;13.13;5.03;;;7.00;86.10;;;;;;5075962;28;20043;-74
2021/04/02 06:38:06;;;;;;;12.97;4.90;;;7.20;85.30;;;;;;5077010;28;20495;-76
2021/04/02 06:40:32;;;;;;;15.13;4.80;;;7.20;84.70;;;;;;5094257;28;20126;-76
2021/04/02 06:43:00;;;;;;;15.83;5.13;;;7.30;83.80;;;;;;5042660;28;20036;-76
2021/04/02 06:45:28;;;;;;;13.87;4.50;;;7.30;83.60;;;;;;5094287;28;20070;-75
2021/04/02 06:48:08;;;;;;;12.60;4.67;;;7.30;83.20;;;;;;5094399;28;20039;-74
2021/04/02 06:50:34;;;;;;;11.88;4.53;;;7.30;82.40;;;;;;5063091;28;20515;-75
2021/04/02 06:53:03;;;;;;;13.47;4.53;;;7.30;82.30;;;;;;5107000;28;20039;-76
2021/04/02 06:55:30;;;;;;;13.47;4.40;;;7.20;82.40;;;;;;5099937;28;20107;-76
2021/04/02 06:57:57;;;;;;;11.63;4.30;;;7.20;82.50;;;;;;5110750;28;20057;-75
2021/04/02 07:00:28;;;;;;;12.03;4.43;;;7.20;82.00;;;;;;5079696;28;20115;-74
2021/04/02 07:02:54;;;;;;;13.75;4.40;;;7.10;82.00;;;;;;5062916;28;20032;-73
2021/04/02 07:05:23;;;;;;;10.13;3.83;;;7.10;82.00;;;;;;5101218;28;20050;-75
2021/04/02 07:07:54;;;;;;;9.77;3.47;;;7.20;82.00;;;;;;5104717;28;20229;-76
2021/04/02 07:10:21;;;;;;;12.75;3.90;;;7.20;81.30;;;;;;5071956;28;20041;-75
2021/04/02 07:12:51;;;;;;;15.27;3.90;;;7.20;81.70;;;;;;5092269;28;20040;-74
2021/04/02 07:15:17;;;;;;;11.60;3.33;;;7.20;81.60;;;;;;5096293;28;20106;-76
2021/04/02 07:17:46;;;;;;;12.57;3.80;;;7.30;81.30;;;;;;5108001;28;20038;-75
2021/04/02 07:20:14;;;;;;;10.67;3.03;;;7.40;82.10;;;;;;5097332;28;20036;-75
2021/04/02 07:22:40;;;;;;;13.13;3.47;;;7.50;81.60;;;;;;5108586;28;20051;-76
2021/04/02 07:25:08;;;;;;;13.93;3.50;;;7.60;80.90;;;;;;5109162;28;20046;-74
2021/04/02 07:27:34;;;;;;;14.53;3.40;;;7.60;80.60;;;;;;5084371;28;20044;-74
2021/04/02 07:30:06;;;;;;;15.50;3.90;;;7.70;80.20;;;;;;5101447;28;20047;-74
2021/04/02 07:32:35;;;;;;;12.60;3.20;;;7.70;80.20;;;;;;5086895;28;20047;-75
2021/04/02 07:35:01;;;;;;;11.57;3.33;;;7.90;81.00;;;;;;5109010;28;20384;-76
2021/04/02 07:37:36;;;;;;;13.47;2.83;;;8.10;80.90;;;;;;5102597;28;20040;-76
2021/04/02 07:40:03;;;;;;;11.87;2.77;;;8.40;80.70;;;;;;5099701;28;20063;-74
2021/04/02 07:42:31;;;;;;;14.73;3.03;;;8.60;78.70;;;;;;5106608;28;20027;-76
2021/04/02 07:44:56;;;;;;;10.67;2.60;;;8.60;77.70;;;;;;5092740;28;20078;-74
2021/04/02 07:47:23;;;;;;;11.40;2.63;;;8.70;78.40;;;;;;5090006;28;20052;-75
2021/04/02 07:49:49;;;;;;;11.33;2.80;;;8.70;77.50;;;;;;5098232;28;20039;-75
2021/04/02 07:52:16;;;;;;;14.47;2.97;;;8.70;76.80;;;;;;5081990;28;20076;-75
2021/04/02 07:54:45;;;;;;;15.47;3.73;;;8.80;77.20;;;;;;5104513;28;20052;-74
2021/04/02 07:57:10;;;;;;;13.87;2.60;;;9.00;78.10;;;;;;5098821;28;20040;-75
2021/04/02 07:59:43;;;;;;;10.27;2.50;;;9.60;78.30;;;;;;5095107;28;20507;-76
2021/04/02 08:02:11;;;;;;;10.20;2.50;;;9.80;75.80;;;;;;5073131;28;20059;-74
2021/04/02 08:04:50;;;;;;;13.00;2.20;;;10.00;75.80;;;;;;5095837;28;20192;-75
2021/04/02 08:07:17;;;;;;;11.03;2.20;;;10.40;74.80;;;;;;5077745;28;20039;-75
2021/04/02 08:09:48;;;;;;;15.85;2.67;;;10.50;73.20;;;;;;5094980;28;20059;-75
2021/04/02 08:12:16;;;;;;;11.05;2.10;;;10.60;72.80;;;;;;5061742;28;20068;-75
2021/04/02 08:14:48;;;;;;;11.73;2.20;;;10.80;72.70;;;;;;5086189;28;20084;-74
2021/04/02 08:17:19;;;;;;;15.38;2.30;;;10.90;70.90;;;;;;5094168;28;20044;-73
2021/04/02 08:19:46;;;;;;;13.52;2.63;;;11.30;72.00;;;;;;5073007;28;20035;-73
2021/04/02 08:22:15;;;;;;;13.80;2.92;;;12.20;73.60;;;;;;5111800;28;20043;-76
2021/04/02 08:24:44;;;;;;;12.63;2.80;;;13.10;71.60;;;;;;5083570;28;20068;-74
2021/04/02 08:27:11;;;;;;;13.52;2.80;;;13.30;68.30;;;;;;5086622;28;20476;-76
2021/04/02 08:29:39;;;;;;;13.43;2.85;;;13.00;64.90;;;;;;5066671;28;20047;-76
2021/04/02 08:32:10;;;;;;;11.38;2.97;;;12.70;64.70;;;;;;5083896;28;20092;-75
2021/04/02 08:34:38;;;;;;;14.70;2.72;;;12.30;64.30;;;;;;5098627;28;20044;-77
2021/04/02 08:37:09;;;;;;;10.75;2.63;;;12.00;64.00;;;;;;5087429;28;20127;-75
2021/04/02 08:39:36;;;;;;;11.52;2.72;;;11.80;65.00;;;;;;5074949;28;20039;-76
2021/04/02 08:42:07;;;;;;;16.90;3.38;;;11.80;65.10;;;;;;5094438;28;20385;-74
2021/04/02 08:44:43;;;;;;;12.95;2.95;;;11.60;64.20;;;;;;5072398;28;20047;-75
2021/04/02 08:47:14;;;;;;;16.80;2.90;;;11.40;64.20;;;;;;5092796;28;20047;-67
2021/04/02 08:49:53;;;;;;;14.20;3.50;;;11.20;63.50;;;;;;5074986;28;20686;-68
2021/04/02 08:52:21;;;;;;;13.15;3.17;;;10.90;63.20;;;;;;5079425;28;20563;-67
2021/04/02 08:54:55;;;;;;;13.95;3.47;;;10.70;63.50;;;;;;5071391;28;20046;-68
2021/04/02 08:57:27;;;;;;;15.40;3.30;;;10.50;63.90;;;;;;5084287;28;20036;-68
2021/04/02 08:59:54;;;;;;;17.23;3.50;;;10.40;63.70;;;;;;5106520;28;20038;-67
2021/04/02 09:02:21;;;;;;;17.02;3.42;;;10.10;63.70;;;;;;5095211;28;20043;-69
2021/04/02 09:04:48;;;;;;;17.10;3.60;;;10.00;63.90;;;;;;5089561;28;20044;-67
2021/04/02 09:07:15;;;;;;;20.30;3.40;;;9.80;64.30;;;;;;5100781;28;20039;-68
2021/04/02 09:09:42;;;;;;;16.58;3.45;;;9.90;64.80;;;;;;5099787;28;20082;-68
2021/04/02 09:12:16;;;;;;;15.68;3.33;;;9.70;65.00;;;;;;5108107;28;20044;-72
2021/04/02 09:14:46;;;;;;;19.13;3.75;;;9.60;65.30;;;;;;5090250;28;20115;-73
2021/04/02 09:17:20;;;;;;;17.20;4.17;;;9.60;65.80;;;;;;5097537;28;20082;-73
2021/04/02 09:19:46;;;;;;;15.43;3.70;;;9.60;65.80;;;;;;5096988;28;20549;-75
2021/04/02 09:22:13;;;;;;;14.07;2.90;;;9.70;65.70;;;;;;5094829;28;20488;-73
2021/04/02 09:24:43;;;;;;;16.30;3.08;;;9.70;65.70;;;;;;5085269;28;20036;-75
2021/04/02 09:27:15;;;;;;;19.35;3.22;;;9.70;65.60;;;;;;5094279;28;20131;-73
2021/04/02 09:29:45;;;;;;;14.37;3.00;;;9.70;65.70;;;;;;5080582;28;20122;-73
2021/04/02 09:32:11;;;;;;;17.33;3.25;;;9.80;66.00;;;;;;5097897;28;20051;-73
2021/04/02 09:34:37;;;;;;;15.83;3.53;;;9.90;65.90;;;;;;5074550;28;20024;-73
2021/04/02 09:37:04;;;;;;;16.30;3.07;;;10.00;65.60;;;;;;5066771;28;20036;-77
2021/04/02 09:39:30;;;;;;;17.88;3.53;;;10.20;65.60;;;;;;5064383;28;20408;-74
2021/04/02 09:42:01;;;;;;;14.63;2.90;;;10.40;65.90;;;;;;5065410;28;20048;-75
2021/04/02 09:44:29;;;;;;;14.55;3.30;;;10.80;65.70;;;;;;5096806;28;20044;-73
2021/04/02 09:47:03;;;;;;;14.23;2.78;;;11.10;64.10;;;;;;5088914;28;20062;-73
2021/04/02 09:49:31;;;;;;;14.48;2.95;;;11.20;62.80;;;;;;5081808;28;20483;-72
2021/04/02 09:51:56;;;;;;;13.45;3.22;;;11.00;61.80;;;;;;5101159;28;20496;-72
2021/04/02 09:54:24;;;;;;;15.40;3.22;;;10.80;61.50;;;;;;5104851;28;20036;-73
2021/04/02 09:56:52;;;;;;;15.38;3.58;;;10.70;62.00;;;;;;5094851;28;20403;-72
2021/04/02 09:59:18;;;;;;;14.80;3.30;;;10.50;62.10;;;;;;5088459;28;20581;-72
2021/04/02 10:01:44;;;;;;;15.50;2.88;;;10.50;62.40;;;;;;5081333;28;20119;-72
2021/04/02 10:04:12;;;;;;;14.75;3.75;;;10.50;62.30;;;;;;5099410;28;20048;-73
2021/04/02 10:06:38;;;;;;;13.77;3.78;;;10.40;62.00;;;;;;5092651;28;20055;-73
2021/04/02 10:09:06;;;;;;;15.02;3.72;;;10.30;62.10;;;;;;5092587;28;20039;-73
2021/04/02 10:11:33;;;;;;;17.17;3.75;;;10.20;61.80;;;;;;5100888;28;20032;-73
2021/04/02 10:13:59;;;;;;;17.05;3.35;;;10.10;61.60;;;;;;5096768;28;20123;-72
2021/04/02 10:16:25;;;;;;;17.08;4.13;;;9.90;61.60;;;;;;5107743;28;20130;-73
2021/04/02 10:18:51;;;;;;;13.52;3.65;;;9.90;62.40;;;;;;5095659;28;20057;-73
2021/04/02 10:21:18;;;;;;;15.20;3.43;;;9.90;62.90;;;;;;5103150;28;20459;-68
2021/04/02 10:23:44;;;;;;;17.27;3.50;;;9.90;62.60;;;;;;5108155;28;20050;-67
2021/04/02 10:26:10;;;;;;;14.18;3.20;;;9.90;62.30;;;;;;5095469;28;20044;-67
2021/04/02 10:28:37;;;;;;;16.47;3.90;;;9.80;62.30;;;;;;5103327;28;20040;-68
2021/04/02 10:31:03;;;;;;;11.30;3.37;;;9.70;62.10;;;;;;5102072;28;20399;-69
2021/04/02 10:33:29;;;;;;;13.23;3.20;;;9.60;62.30;;;;;;5100174;28;20516;-69
2021/04/02 10:35:55;;;;;;;13.73;3.37;;;9.60;63.00;;;;;;5093265;28;20035;-69
2021/04/02 10:38:21;;;;;;;16.77;3.77;;;9.70;63.30;;;;;;5078488;28;20043;-69
2021/04/02 10:40:47;;;;;;;14.57;3.90;;;9.70;62.90;;;;;;5098328;28;20509;-67
2021/04/02 10:43:13;;;;;;;13.43;3.07;;;9.70;63.00;;;;;;5085044;28;20492;-67
2021/04/02 10:45:40;;;;;;;13.17;3.73;;;9.60;62.60;;;;;;5087103;28;20533;-69
2021/04/02 10:48:07;;;;;;;17.13;4.00;;;9.50;63.20;;;;;;5079454;28;20096;-67
2021/04/02 10:50:32;;;;;;;16.70;3.83;;;9.50;63.60;;;;;;5105130;28;20039;-68
2021/04/02 10:52:59;;;;;;;15.70;3.73;;;9.70;64.10;;;;;;5098462;28;20403;-67
2021/04/02 10:55:25;;;;;;;12.90;3.30;;;9.80;64.10;;;;;;5083895;28;20036;-67
2021/04/02 10:57:51;;;;;;;14.37;3.10;;;10.00;64.00;;;;;;5105555;28;20073;-66
2021/04/02 11:00:18;;;;;;;12.48;2.88;;;10.10;63.20;;;;;;5095807;28;20370;-66
2021/04/02 11:02:44;;;;;;;13.68;2.92;;;10.10;62.60;;;;;;5059498;28;20120;-66
2021/04/02 11:05:11;;;;;;;15.77;3.23;;;10.00;62.70;;;;;;5103785;28;20119;-68
2021/04/02 11:07:37;;;;;;;13.38;3.25;;;10.00;62.60;;;;;;5101017;28;20070;-67
2021/04/02 11:10:12;;;;;;;14.40;3.35;;;9.90;62.50;;;;;;5096298;28;20401;-68
2021/04/02 11:12:38;;;;;;;11.93;2.55;;;9.90;62.50;;;;;;5092761;28;20067;-67
2021/04/02 11:15:06;;;;;;;14.93;3.05;;;9.70;61.90;;;;;;5105652;28;20127;-67
2021/04/02 11:17:32;;;;;;;12.87;2.97;;;9.60;62.10;;;;;;5100808;28;20039;-68
2021/04/02 11:19:58;;;;;;;14.80;3.00;;;9.40;62.60;;;;;;5093326;28;20545;-67
2021/04/02 11:22:24;;;;;;;11.83;2.70;;;9.40;63.10;;;;;;5110821;28;20467;-67
2021/04/02 11:24:52;;;;;;;13.67;2.87;;;9.40;63.40;;;;;;5098134;28;20059;-68
2021/04/02 11:27:18;;;;;;;10.20;2.33;;;9.40;64.00;;;;;;5106200;28;20051;-68
2021/04/02 11:29:44;;;;;;;12.50;2.83;;;9.50;63.80;;;;;;5106021;28;20050;-66
2021/04/02 11:32:11;;;;;;;11.17;2.80;;;9.60;63.30;;;;;;5097961;28;20476;-68
2021/04/02 11:34:37;;;;;;;16.13;2.70;;;9.60;63.20;;;;;;5110332;28;20050;-68
2021/04/02 11:37:04;;;;;;;11.80;2.90;;;9.60;62.90;;;;;;5107525;28;20043;-68
2021/04/02 11:39:30;;;;;;;10.47;2.60;;;9.60;63.00;;;;;;5057734;28;20404;-66
2021/04/02 11:41:56;;;;;;;12.70;2.87;;;9.70;63.00;;;;;;5094238;28;20032;-66
2021/04/02 11:44:23;;;;;;;12.27;2.80;;;9.70;62.90;;;;;;5059587;28;20515;-66
2021/04/02 11:46:49;;;;;;;11.43;2.80;;;9.70;62.60;;;;;;5094465;28;20059;-65
2021/04/02 11:49:15;;;;;;;11.60;2.50;;;9.70;61.80;;;;;;5059615;28;20051;-66
2021/04/02 11:51:41;;;;;;;10.52;1.98;;;9.60;62.30;;;;;;5075540;28;20392;-67
2021/04/02 11:54:07;;;;;;;11.20;2.33;;;9.70;62.80;;;;;;5076224;28;20124;-67
2021/04/02 11:56:32;;;;;;;14.27;3.27;;;9.70;62.40;;;;;;5076353;28;20040;-68
2021/04/02 11:58:58;;;;;;;12.63;2.80;;;9.80;62.40;;;;;;5094255;28;20039;-67
2021/04/02 12:01:24;;;;;;;7.60;2.25;;;9.90;62.70;;;;;;5059345;28;20089;-67
2021/04/02 12:03:49;;;;;;;11.13;2.22;;;10.00;63.10;;;;;;5075288;28;20044;-67
2021/04/02 12:06:15;;;;;;;8.82;2.78;;;10.10;61.80;;;;;;5094126;28;20526;-68
2021/04/02 12:08:41;;;;;;;13.93;2.60;;;10.10;61.60;;;;;;5094525;28;20115;-67
2021/04/02 12:11:07;;;;;;;8.32;2.20;;;10.10;61.50;;;;;;5093631;28;20559;-68
2021/04/02 12:13:33;;;;;;;12.47;2.30;;;10.10;61.30;;;;;;5076026;28;20484;-68
2021/04/02 12:15:59;;;;;;;12.98;2.33;;;10.00;61.20;;;;;;5093478;28;20032;-69
2021/04/02 12:18:25;;;;;;;11.15;2.10;;;10.00;61.10;;;;;;5075605;28;20036;-66
2021/04/02 12:20:50;;;;;;;13.63;2.35;;;9.70;60.80;;;;;;5093566;28;20032;-67
2021/04/02 12:23:16;;;;;;;15.57;2.63;;;9.80;61.40;;;;;;5068934;28;20029;-69
2021/04/02 12:25:42;;;;;;;12.75;2.42;;;9.80;61.70;;;;;;5071663;28;20082;-66
2021/04/02 12:28:08;;;;;;;11.43;2.27;;;9.80;61.50;;;;;;5087129;28;20489;-66
2021/04/02 12:30:34;;;;;;;16.45;2.88;;;9.70;61.80;;;;;;5069802;28;20044;-71
2021/04/02 12:33:00;;;;;;;16.80;2.60;;;9.70;61.80;;;;;;5052379;28;20032;-66
2021/04/02 12:35:26;;;;;;;12.33;2.50;;;9.80;62.10;;;;;;5084271;28;20067;-68
2021/04/02 12:37:52;;;;;;;9.17;2.07;;;9.80;62.20;;;;;;5090563;28;20055;-67
2021/04/02 12:40:21;;;;;;;13.87;3.03;;;9.80;62.30;;;;;;5093931;28;20058;-67
2021/04/02 12:42:46;;;;;;;9.98;2.30;;;9.90;62.50;;;;;;5086713;28;20070;-68
2021/04/02 12:45:13;;;;;;;13.55;2.53;;;10.00;62.60;;;;;;5075068;28;20078;-72
2021/04/02 12:47:40;;;;;;;10.77;2.33;;;10.00;62.50;;;;;;5095259;28;20077;-74
2021/04/02 12:50:14;;;;;;;13.57;2.75;;;10.10;62.60;;;;;;5095064;28;20119;-74
2021/04/02 12:52:39;;;;;;;8.73;2.20;;;10.10;62.60;;;;;;5097910;28;20146;-75